Time;durP1;ratioP1;P1;durP2;ratioP2;P2;SDS_P1;SDS_P2;PMS_P1;PMS_P2;Temp;Humidity;BMP_temperature;BMP_pressure;BME280_temperature;BME280_humidity;BME280_pressure;Samples;Min_cycle;Max_cycle;Signal;HPM_P1;HPM_P2
2024/01/19 00:00:23;;;;;;;16.58;9.48;;;-1.80;99.90;;;-2.87;100.00;101516.03;4177864;28;20022;-69
2024/01/19 00:02:24;;;;;;;15.15;8.93;;;-1.90;99.90;;;-2.90;100.00;101516.13;4186139;28;20033;-69
2024/01/19 00:04:24;;;;;;;12.50;8.35;;;-1.90;99.90;;;-2.93;100.00;101517.03;4181210;28;20033;-69
2024/01/19 00:06:25;;;;;;;14.23;9.15;;;-1.90;99.90;;;-2.94;100.00;101524.84;4184239;28;20037;-69
2024/01/19 00:08:26;;;;;;;16.67;9.50;;;-1.90;99.90;;;-2.99;100.00;101519.03;4184034;28;20013;-68
2024/01/19 00:10:27;;;;;;;17.85;9.70;;;-1.90;99.90;;;-3.00;100.00;101522.47;4175029;28;20405;-68
2024/01/19 00:12:29;;;;;;;15.30;9.60;;;-1.90;99.90;;;-2.98;100.00;101528.44;4180761;28;20075;-68
2024/01/19 00:14:30;;;;;;;13.65;8.70;;;-2.00;99.90;;;-3.02;100.00;101532.03;4171760;28;20483;-68
2024/01/19 00:16:31;;;;;;;13.55;8.48;;;-2.00;99.90;;;-3.01;100.00;101536.28;4176193;28;20033;-68
2024/01/19 00:18:32;;;;;;;17.58;9.25;;;-2.00;99.90;;;-3.03;100.00;101535.50;4173247;28;20508;-68
2024/01/19 00:20:33;;;;;;;12.05;8.15;;;-2.00;99.90;;;-3.04;100.00;101538.94;4176250;28;20485;-68
2024/01/19 00:22:34;;;;;;;13.02;8.77;;;-2.00;99.90;;;-3.06;100.00;101533.00;4170010;28;20041;-69
2024/01/19 00:24:34;;;;;;;14.20;8.73;;;-2.10;99.90;;;-3.07;100.00;101529.56;4171657;28;20125;-69
2024/01/19 00:26:35;;;;;;;17.90;9.20;;;-2.10;99.90;;;-3.04;100.00;101538.94;4162141;28;20131;-69
2024/01/19 00:28:36;;;;;;;15.50;9.15;;;-2.10;99.90;;;-3.05;100.00;101534.72;4171543;28;20017;-69
2024/01/19 00:30:37;;;;;;;12.65;7.60;;;-2.10;99.90;;;-3.01;100.00;101536.28;4185185;28;20056;-69
2024/01/19 00:32:38;;;;;;;14.95;7.90;;;-2.00;99.90;;;-3.02;100.00;101532.88;4171657;28;20045;-69
2024/01/19 00:34:39;;;;;;;14.60;9.15;;;-2.00;99.90;;;-3.05;100.00;101542.44;4171483;28;20032;-68
2024/01/19 00:36:40;;;;;;;11.63;8.57;;;-2.00;99.90;;;-3.09;100.00;101539.13;4171299;28;20083;-68
2024/01/19 00:38:41;;;;;;;16.27;9.07;;;-2.00;99.90;;;-3.08;100.00;101539.97;4171245;28;20485;-68
2024/01/19 00:40:44;;;;;;;15.48;9.23;;;-2.10;99.90;;;-3.08;100.00;101543.41;4171195;28;20045;-69
2024/01/19 00:42:45;;;;;;;16.90;9.90;;;-2.10;99.90;;;-3.11;100.00;101532.31;4178671;28;20025;-68
2024/01/19 00:44:46;;;;;;;17.20;8.80;;;-2.10;99.90;;;-3.13;100.00;101541.81;4170114;28;20026;-69
2024/01/19 00:46:47;;;;;;;15.13;8.55;;;-2.20;99.90;;;-3.14;100.00;101542.75;4171096;28;20026;-69
2024/01/19 00:48:48;;;;;;;14.85;8.52;;;-2.10;99.90;;;-3.15;100.00;101544.47;4178574;28;20024;-68
2024/01/19 00:50:49;;;;;;;15.30;9.18;;;-2.10;99.90;;;-3.15;100.00;101551.38;4171194;28;20083;-68
2024/01/19 00:52:50;;;;;;;13.77;9.35;;;-2.20;99.90;;;-3.19;100.00;101536.88;4182477;28;20079;-68
2024/01/19 00:54:51;;;;;;;16.08;9.57;;;-2.10;99.90;;;-3.21;100.00;101549.84;4187552;28;20021;-68
2024/01/19 00:56:52;;;;;;;14.10;9.35;;;-2.10;99.90;;;-3.25;100.00;101542.22;4187407;28;20021;-68
2024/01/19 00:58:53;;;;;;;17.83;10.30;;;-2.20;99.90;;;-3.27;100.00;101544.88;4187588;28;20037;-68
2024/01/19 01:00:54;;;;;;;18.73;10.02;;;-2.20;99.90;;;-3.27;100.00;101544.03;4187791;28;20025;-68
2024/01/19 01:02:57;;;;;;;16.17;9.77;;;-2.20;99.90;;;-3.24;100.00;101543.91;4186129;28;20025;-68
2024/01/19 01:04:58;;;;;;;12.48;8.40;;;-2.20;99.90;;;-3.27;100.00;101539.72;4187446;28;20048;-68
2024/01/19 01:07:00;;;;;;;14.05;9.20;;;-2.20;99.90;;;-3.24;100.00;101546.50;4187446;28;20029;-68
2024/01/19 01:09:00;;;;;;;12.63;8.38;;;-2.30;99.90;;;-3.27;100.00;101541.44;4187290;28;20021;-68
2024/01/19 01:11:03;;;;;;;14.27;8.80;;;-2.30;99.90;;;-3.27;100.00;101549.19;4185892;28;20036;-68
2024/01/19 01:13:04;;;;;;;16.20;9.93;;;-2.20;99.90;;;-3.29;100.00;101553.56;4186282;28;20017;-68
2024/01/19 01:15:06;;;;;;;14.82;9.20;;;-2.20;99.90;;;-3.31;100.00;101556.16;4187314;28;20021;-68
2024/01/19 01:17:06;;;;;;;14.65;9.52;;;-2.30;99.90;;;-3.31;100.00;101552.75;4187344;28;20029;-68
2024/01/19 01:19:08;;;;;;;15.05;9.25;;;-2.30;99.90;;;-3.28;100.00;101560.38;4187166;28;20033;-68
2024/01/19 01:21:09;;;;;;;15.32;9.40;;;-2.30;99.90;;;-3.31;100.00;101575.94;4187314;28;20017;-68
2024/01/19 01:23:09;;;;;;;14.45;8.18;;;-2.30;99.90;;;-3.32;100.00;101574.28;4185966;28;20558;-68
2024/01/19 01:25:10;;;;;;;16.40;8.93;;;-2.30;99.90;;;-3.31;100.00;101575.94;4186103;28;20036;-68
2024/01/19 01:27:11;;;;;;;15.07;8.70;;;-2.30;99.90;;;-3.32;100.00;101561.38;4185540;28;20036;-68
2024/01/19 01:29:12;;;;;;;14.32;8.15;;;-2.30;99.90;;;-3.31;100.00;101570.78;4187153;28;20028;-68
2024/01/19 01:31:13;;;;;;;13.02;7.32;;;-2.30;99.90;;;-3.29;100.00;101576.78;4185865;28;20037;-68
2024/01/19 01:33:14;;;;;;;13.13;8.23;;;-2.30;99.90;;;-3.32;100.00;101576.88;4176304;28;20029;-68
2024/01/19 01:35:15;;;;;;;11.90;8.63;;;-2.30;99.90;;;-3.37;100.00;101572.69;4169174;28;20037;-68
2024/01/19 01:37:15;;;;;;;15.85;9.63;;;-2.30;99.90;;;-3.39;100.00;101578.78;4170568;28;20435;-68
2024/01/19 01:39:16;;;;;;;14.73;8.30;;;-2.40;99.90;;;-3.41;100.00;101575.41;4170453;28;20029;-68
2024/01/19 01:41:17;;;;;;;15.10;8.55;;;-2.40;99.90;;;-3.46;100.00;101579.84;4170195;28;20058;-68
2024/01/19 01:43:23;;;;;;;12.57;9.18;;;-2.40;99.90;;;-3.49;100.00;101573.06;4170354;28;20030;-68
2024/01/19 01:45:24;;;;;;;18.42;9.18;;;-2.40;99.90;;;-3.46;100.00;101578.13;4172938;28;20040;-68
2024/01/19 01:47:25;;;;;;;15.93;9.50;;;-2.40;99.90;;;-3.44;100.00;101586.69;4187010;28;20396;-68
2024/01/19 01:49:26;;;;;;;16.65;10.32;;;-2.40;99.90;;;-3.45;100.00;101573.81;4186829;28;20029;-68
2024/01/19 01:51:27;;;;;;;12.77;8.40;;;-2.40;99.90;;;-3.46;100.00;101572.97;4186758;28;20120;-68
2024/01/19 01:53:28;;;;;;;14.00;8.27;;;-2.40;99.90;;;-3.44;100.00;101585.81;4170254;28;20022;-68
2024/01/19 01:55:29;;;;;;;12.57;8.13;;;-2.40;99.90;;;-3.44;100.00;101571.22;4170050;28;20520;-68
2024/01/19 01:57:30;;;;;;;18.50;9.48;;;-2.40;99.90;;;-3.41;100.00;101576.28;4178698;28;20028;-68
2024/01/19 01:59:31;;;;;;;11.05;6.78;;;-2.40;99.90;;;-3.44;100.00;101586.69;4170156;28;20033;-69
2024/01/19 02:01:32;;;;;;;13.90;7.80;;;-2.40;99.90;;;-3.47;100.00;101580.75;4185223;28;20032;-69
2024/01/19 02:03:34;;;;;;;16.13;6.82;;;-2.50;99.90;;;-3.49;100.00;101573.06;4169018;28;20431;-68
2024/01/19 02:05:35;;;;;;;17.85;8.55;;;-2.50;99.90;;;-3.52;100.00;101578.31;4170128;28;20033;-69
2024/01/19 02:07:36;;;;;;;11.88;9.07;;;-2.50;99.90;;;-3.61;100.00;101573.44;4169931;28;20435;-68
2024/01/19 02:09:37;;;;;;;13.18;7.90;;;-2.50;99.90;;;-3.56;100.00;101578.47;4177399;28;20021;-68
2024/01/19 02:11:38;;;;;;;13.63;7.72;;;-2.50;99.90;;;-3.57;100.00;101579.34;4186055;28;20025;-69
2024/01/19 02:13:38;;;;;;;13.57;7.57;;;-2.60;99.90;;;-3.58;100.00;101587.97;4177494;28;20027;-68
2024/01/19 02:15:39;;;;;;;13.07;7.15;;;-2.60;99.90;;;-3.61;100.00;101581.16;4186405;28;20400;-69
2024/01/19 02:17:40;;;;;;;11.13;7.47;;;-2.60;99.90;;;-3.60;100.00;101579.44;4184510;28;20013;-69
2024/01/19 02:19:41;;;;;;;12.90;8.10;;;-2.60;99.90;;;-3.61;100.00;101578.59;4152230;28;20089;-68
2024/01/19 02:21:44;;;;;;;14.38;7.78;;;-2.60;99.90;;;-3.58;100.00;101583.66;4175604;28;20029;-69
2024/01/19 02:24:01;;;;;;;11.82;7.85;;;-2.60;99.90;;;-3.58;100.00;101585.38;4174594;28;20088;-68
2024/01/19 02:26:05;;;;;;;14.90;8.50;;;-2.60;99.90;;;-3.61;100.00;101594.06;4169506;28;20034;-69
2024/01/19 02:28:06;;;;;;;;;;;-2.60;99.90;;;-3.67;100.00;101585.66;4176630;28;20021;-69
2024/01/19 02:30:09;;;;;;;11.95;7.32;;;-2.60;99.90;;;-3.70;100.00;101594.31;4186232;28;19930;-69
2024/01/19 02:32:10;;;;;;;13.27;8.20;;;-2.60;99.90;;;-3.73;100.00;101581.53;4184774;28;20029;-69
2024/01/19 02:34:11;;;;;;;11.70;8.48;;;-2.60;99.90;;;-3.73;100.00;101593.59;4169794;28;20036;-69
2024/01/19 02:36:12;;;;;;;10.73;7.38;;;-2.70;99.90;;;-3.75;100.00;101580.75;4169373;28;20026;-68
2024/01/19 02:38:13;;;;;;;11.57;7.55;;;-2.70;99.90;;;-3.74;100.00;101592.75;4169629;28;20468;-69
2024/01/19 02:40:14;;;;;;;12.95;7.90;;;-2.70;99.90;;;-3.74;100.00;101595.31;4169250;28;20128;-68
2024/01/19 02:42:15;;;;;;;14.82;7.95;;;-2.70;99.90;;;-3.75;100.00;101585.91;4176812;28;20021;-69
2024/01/19 02:44:17;;;;;;;13.82;7.88;;;-2.70;99.90;;;-3.74;100.00;101592.75;4176373;28;20112;-68
2024/01/19 02:46:21;;;;;;;12.43;8.23;;;-2.70;99.90;;;-3.72;100.00;101600.41;4184823;28;20126;-69
2024/01/19 02:48:22;;;;;;;14.98;8.18;;;-2.70;99.90;;;-3.74;100.00;101600.47;4185966;28;20025;-68
2024/01/19 02:50:23;;;;;;;14.80;8.65;;;-2.70;99.90;;;-3.72;100.00;101605.56;4186039;28;20488;-68
2024/01/19 02:52:24;;;;;;;14.98;7.88;;;-2.70;99.90;;;-3.75;100.00;101598.78;4178174;28;20026;-68
2024/01/19 02:54:24;;;;;;;16.33;8.45;;;-2.70;99.90;;;-3.64;100.00;101598.44;4195369;28;20028;-68
2024/01/19 02:56:25;;;;;;;12.07;8.07;;;-2.70;99.90;;;-3.62;100.00;101604.44;4185382;28;20063;-68
2024/01/19 02:58:26;;;;;;;12.30;8.30;;;-2.70;99.90;;;-3.63;100.00;101607.88;4185684;28;20037;-69
2024/01/19 03:00:27;;;;;;;12.82;7.53;;;-2.70;99.90;;;-3.64;100.00;101593.28;4185833;28;20029;-69
2024/01/19 03:02:28;;;;;;;12.10;6.97;;;-2.60;99.90;;;-3.59;100.00;101600.03;4175456;28;20026;-69
2024/01/19 03:04:29;;;;;;;14.45;7.05;;;-2.70;99.90;;;-3.58;100.00;101593.97;4168977;28;20029;-69
2024/01/19 03:06:30;;;;;;;12.98;7.75;;;-2.60;99.90;;;-3.60;100.00;101590.59;4169188;28;20084;-69
2024/01/19 03:08:30;;;;;;;11.40;6.80;;;-2.60;99.90;;;-3.56;100.00;101597.38;4169988;28;20029;-69
2024/01/19 03:10:31;;;;;;;14.10;8.15;;;-2.60;99.90;;;-3.56;100.00;101597.38;4175414;28;20037;-69
2024/01/19 03:12:32;;;;;;;17.77;7.20;;;-2.60;99.90;;;-3.56;100.00;101597.38;4182055;28;20040;-69
2024/01/19 03:14:33;;;;;;;12.63;7.30;;;-2.60;99.90;;;-3.57;100.00;101590.50;4167876;28;20029;-68
2024/01/19 03:16:40;;;;;;;11.98;7.10;;;-2.60;99.90;;;-3.55;100.00;101590.44;4184399;28;20079;-69
2024/01/19 03:18:41;;;;;;;14.90;8.07;;;-2.50;99.90;;;-3.56;100.00;101597.38;4169027;28;20029;-69
2024/01/19 03:20:42;;;;;;;9.93;6.85;;;-2.50;99.90;;;-3.55;100.00;101595.59;4168773;28;20076;-69
2024/01/19 03:22:44;;;;;;;11.40;7.18;;;-2.60;99.90;;;-3.61;100.00;101588.91;4179484;28;20053;-69
2024/01/19 03:24:45;;;;;;;12.85;7.70;;;-2.60;99.90;;;-3.62;100.00;101597.53;4168833;28;20080;-69
2024/01/19 03:26:46;;;;;;;12.65;7.40;;;-2.60;99.90;;;-3.65;100.00;101597.63;4168615;28;20029;-69
2024/01/19 03:28:47;;;;;;;15.50;8.43;;;-2.60;99.90;;;-3.62;100.00;101605.28;4181271;28;20100;-69
2024/01/19 03:30:48;;;;;;;13.52;7.72;;;-2.60;99.90;;;-3.61;100.00;101595.78;4168889;28;20504;-68
2024/01/19 03:32:48;;;;;;;9.85;6.90;;;-2.60;99.90;;;-3.59;100.00;101597.47;4177599;28;20405;-69
2024/01/19 03:34:49;;;;;;;9.65;6.95;;;-2.60;99.90;;;-3.57;100.00;101600.81;4173893;28;20026;-69
2024/01/19 03:36:50;;;;;;;11.98;7.88;;;-2.50;99.90;;;-3.58;100.00;101604.28;4181824;28;20032;-69
2024/01/19 03:38:51;;;;;;;13.63;8.75;;;-2.60;99.90;;;-3.55;100.00;101609.34;4183995;28;20025;-69
2024/01/19 03:40:52;;;;;;;12.75;7.60;;;-2.60;99.90;;;-3.53;100.00;101610.16;4184972;28;20025;-68
2024/01/19 03:42:53;;;;;;;12.35;8.57;;;-2.50;99.90;;;-3.50;100.00;101611.81;4175534;28;20029;-68
2024/01/19 03:44:54;;;;;;;13.82;7.35;;;-2.50;99.90;;;-3.51;100.00;101615.25;4168603;28;20036;-69
2024/01/19 03:46:54;;;;;;;13.05;8.38;;;-2.50;99.90;;;-3.57;100.00;101621.44;4168582;28;20554;-69
2024/01/19 03:48:55;;;;;;;13.65;8.00;;;-2.60;99.90;;;-3.66;100.00;101616.56;4168211;28;20021;-68
2024/01/19 03:50:56;;;;;;;12.00;7.63;;;-2.60;99.90;;;-3.65;100.00;101620.84;4168661;28;20022;-68
2024/01/19 03:52:57;;;;;;;8.93;6.53;;;-2.60;99.90;;;-3.68;100.00;101620.06;4183891;28;20022;-69
2024/01/19 03:54:58;;;;;;;10.75;6.88;;;-2.60;99.90;;;-3.75;100.00;101629.72;4184956;28;20033;-69
2024/01/19 03:57:06;;;;;;;11.00;7.68;;;-2.70;99.90;;;-3.82;100.00;101625.63;4183783;28;20032;-69
2024/01/19 03:59:06;;;;;;;10.80;6.63;;;-2.70;99.90;;;-3.78;100.00;101626.38;4184925;28;20024;-70
2024/01/19 04:01:07;;;;;;;11.73;7.22;;;-2.70;99.90;;;-3.84;100.00;101623.97;4184962;28;20029;-69
2024/01/19 04:03:08;;;;;;;11.55;6.93;;;-2.70;99.90;;;-3.83;100.00;101642.00;4168950;28;20447;-69
2024/01/19 04:05:09;;;;;;;11.68;6.78;;;-2.70;99.90;;;-3.82;100.00;101643.66;4168468;28;20025;-69
2024/01/19 04:07:10;;;;;;;11.57;7.10;;;-2.80;99.90;;;-3.81;100.00;101642.78;4168445;28;20029;-69
2024/01/19 04:09:11;;;;;;;13.45;7.43;;;-2.80;99.90;;;-3.77;100.00;101644.38;4172212;28;20017;-69
2024/01/19 04:11:12;;;;;;;12.40;7.40;;;-2.70;99.90;;;-3.78;100.00;101645.28;4167840;28;20079;-69
2024/01/19 04:13:13;;;;;;;12.73;7.18;;;-2.70;99.90;;;-3.80;100.00;101648.78;4178064;28;20048;-69
2024/01/19 04:15:13;;;;;;;11.40;7.82;;;-2.70;99.90;;;-3.84;100.00;101647.16;4177432;28;20075;-68
2024/01/19 04:17:14;;;;;;;11.38;7.82;;;-2.80;99.90;;;-3.85;100.00;101641.16;4184926;28;20025;-69
2024/01/19 04:19:15;;;;;;;15.45;8.88;;;-2.80;99.90;;;-3.84;100.00;101645.44;4184885;28;20029;-69
2024/01/19 04:21:16;;;;;;;11.43;7.85;;;-2.80;99.90;;;-3.76;100.00;101640.91;4184859;28;20132;-69
2024/01/19 04:23:17;;;;;;;13.73;8.35;;;-2.80;99.90;;;-3.72;100.00;101651.97;4175244;28;20436;-69
2024/01/19 04:25:18;;;;;;;15.52;8.98;;;-2.80;99.90;;;-3.71;100.00;101649.38;4168352;28;20025;-68
2024/01/19 04:27:19;;;;;;;11.18;7.65;;;-2.70;99.90;;;-3.69;100.00;101642.44;4173655;28;20100;-69
2024/01/19 04:29:20;;;;;;;14.13;7.68;;;-2.70;99.90;;;-3.68;100.00;101649.28;4168395;28;20025;-68
2024/01/19 04:31:21;;;;;;;10.02;7.25;;;-2.70;99.90;;;-3.70;100.00;101658.78;4175344;28;20025;-68
2024/01/19 04:33:22;;;;;;;15.75;8.15;;;-2.70;99.90;;;-3.66;100.00;101665.53;4172271;28;20129;-68
2024/01/19 04:35:23;;;;;;;14.20;8.57;;;-2.70;99.90;;;-3.66;100.00;101662.97;4180889;28;20033;-69
2024/01/19 04:37:24;;;;;;;12.77;8.32;;;-2.60;99.90;;;-3.69;100.00;101654.47;4168329;28;20021;-69
2024/01/19 04:39:25;;;;;;;14.27;8.80;;;-2.70;99.90;;;-3.70;100.00;101658.78;4168282;28;20030;-69
2024/01/19 04:41:25;;;;;;;10.23;7.05;;;-2.70;99.90;;;-3.73;100.00;101661.44;4170457;28;20056;-69
2024/01/19 04:43:26;;;;;;;12.57;7.43;;;-2.70;99.90;;;-3.81;100.00;101657.38;4170229;28;20029;-69
2024/01/19 04:45:27;;;;;;;15.13;7.15;;;-2.70;99.90;;;-3.88;100.00;101661.88;4171348;28;20036;-69
2024/01/19 04:47:30;;;;;;;12.68;7.63;;;-2.80;99.90;;;-3.94;100.00;101672.34;4168313;28;20037;-69
2024/01/19 04:49:31;;;;;;;10.38;7.15;;;-2.80;99.90;;;-3.99;100.00;101674.22;4168175;28;20167;-69
2024/01/19 04:51:32;;;;;;;9.57;7.03;;;-2.90;99.90;;;-4.01;100.00;101674.25;4170531;28;20506;-69
2024/01/19 04:53:33;;;;;;;10.98;7.70;;;-3.00;99.90;;;-3.99;100.00;101671.63;4184692;28;20551;-69
2024/01/19 04:55:34;;;;;;;13.32;7.50;;;-3.00;99.90;;;-3.98;100.00;101673.34;4184457;28;20033;-68
2024/01/19 04:57:34;;;;;;;11.57;8.00;;;-2.90;99.90;;;-3.95;100.00;101671.53;4183488;28;20480;-69
2024/01/19 04:59:35;;;;;;;15.45;8.23;;;-2.90;99.90;;;-3.93;100.00;101674.03;4184538;28;20025;-68
2024/01/19 05:01:36;;;;;;;12.70;8.43;;;-3.00;99.90;;;-3.93;100.00;101679.19;4183696;28;20026;-69
2024/01/19 05:03:37;;;;;;;13.35;8.00;;;-2.90;99.90;;;-3.95;100.00;101680.97;4169817;28;20108;-68
2024/01/19 05:05:38;;;;;;;10.88;8.18;;;-2.90;99.90;;;-3.95;100.00;101686.97;4186272;28;20033;-69
2024/01/19 05:07:39;;;;;;;11.15;9.05;;;-2.90;99.90;;;-3.94;100.00;101678.34;4171017;28;20025;-68
2024/01/19 05:09:39;;;;;;;13.85;8.32;;;-2.90;99.90;;;-3.93;100.00;101685.19;4185899;28;20071;-69
2024/01/19 05:11:40;;;;;;;12.75;7.72;;;-3.00;99.90;;;-3.97;100.00;101686.16;4170758;28;20017;-69
2024/01/19 05:13:41;;;;;;;16.65;9.48;;;-2.90;99.90;;;-3.99;100.00;101677.63;4179004;28;20191;-69
2024/01/19 05:15:43;;;;;;;12.32;8.38;;;-3.00;99.90;;;-3.98;100.00;101689.66;4169655;28;20021;-68
2024/01/19 05:17:44;;;;;;;12.25;6.85;;;-3.00;99.90;;;-4.01;100.00;101687.16;4170592;28;20038;-69
2024/01/19 05:19:44;;;;;;;11.05;7.15;;;-3.00;99.90;;;-4.07;100.00;101696.75;4170752;28;20037;-69
2024/01/19 05:21:45;;;;;;;14.90;9.77;;;-3.00;99.90;;;-4.09;100.00;101689.06;4170755;28;20037;-69
2024/01/19 05:23:46;;;;;;;13.48;8.38;;;-3.10;99.90;;;-4.05;100.00;101694.97;4181404;28;20041;-69
2024/01/19 05:25:47;;;;;;;13.77;9.20;;;-3.00;99.90;;;-4.08;100.00;101693.34;4170129;28;20037;-69
2024/01/19 05:27:53;;;;;;;14.07;9.18;;;-3.10;99.90;;;-4.11;100.00;101697.72;4175199;28;20020;-69
2024/01/19 05:29:54;;;;;;;15.35;8.50;;;-3.00;99.90;;;-4.17;100.00;101701.31;4177943;28;20060;-69
2024/01/19 05:31:55;;;;;;;12.45;8.07;;;-3.10;99.90;;;-4.20;100.00;101705.69;4183183;28;20479;-69
2024/01/19 05:33:56;;;;;;;12.40;8.77;;;-3.10;99.90;;;-4.25;100.00;101707.53;4171230;28;20030;-69
2024/01/19 05:35:56;;;;;;;13.05;7.75;;;-3.20;99.90;;;-4.25;100.00;101703.25;4169129;28;20091;-69
2024/01/19 05:37:57;;;;;;;12.82;9.05;;;-3.20;99.90;;;-4.23;100.00;101698.03;4170556;28;20076;-69
2024/01/19 05:39:58;;;;;;;13.07;8.73;;;-3.20;99.90;;;-4.14;100.00;101710.69;4170516;28;20030;-69
2024/01/19 05:41:59;;;;;;;18.75;10.60;;;-3.10;99.90;;;-4.06;100.00;101713.94;4170095;28;20040;-69
2024/01/19 05:44:01;;;;;;;13.18;9.05;;;-3.20;99.90;;;-4.04;100.00;101712.16;4170527;28;20033;-69
2024/01/19 05:46:01;;;;;;;14.57;9.65;;;-3.10;99.90;;;-4.00;100.00;101716.31;4177362;28;20060;-69
2024/01/19 05:48:03;;;;;;;11.60;9.20;;;-3.10;99.90;;;-3.97;100.00;101718.81;4170310;28;20021;-68
2024/01/19 05:50:04;;;;;;;12.50;8.13;;;-3.00;99.90;;;-3.94;100.00;101726.47;4170266;28;20040;-69
2024/01/19 05:52:05;;;;;;;12.13;8.18;;;-3.00;99.90;;;-4.01;100.00;101717.22;4175313;28;20100;-69
2024/01/19 05:54:06;;;;;;;11.32;8.05;;;-3.00;99.90;;;-4.08;100.00;101729.41;4185622;28;20021;-69
2024/01/19 05:56:07;;;;;;;11.90;7.97;;;-3.10;99.90;;;-4.12;100.00;101732.13;4186505;28;20028;-69
2024/01/19 05:58:08;;;;;;;13.38;8.15;;;-3.10;99.90;;;-4.17;100.00;101731.38;4186576;28;20039;-69
2024/01/19 06:00:09;;;;;;;13.35;8.07;;;-3.10;99.90;;;-4.21;100.00;101729.78;4186777;28;20036;-69
2024/01/19 06:02:10;;;;;;;14.13;8.95;;;-3.10;99.90;;;-4.21;100.00;101740.06;4185474;28;20539;-69
2024/01/19 06:04:11;;;;;;;13.13;9.27;;;-3.20;99.90;;;-4.21;100.00;101740.06;4186676;28;20032;-69
2024/01/19 06:06:12;;;;;;;16.25;8.32;;;-3.10;99.90;;;-4.18;100.00;101742.56;4186389;28;20040;-69
2024/01/19 06:08:13;;;;;;;12.80;8.73;;;-3.10;99.90;;;-4.22;100.00;101738.38;4186570;28;20021;-69
2024/01/19 06:10:14;;;;;;;11.82;9.38;;;-3.10;99.90;;;-4.23;100.00;101737.53;4178232;28;20067;-69
2024/01/19 06:12:15;;;;;;;13.63;9.10;;;-3.10;99.90;;;-4.23;100.00;101741.81;4180630;28;20103;-69
2024/01/19 06:14:16;;;;;;;11.93;8.40;;;-3.10;99.90;;;-4.27;100.00;101747.94;4186286;28;20025;-69
2024/01/19 06:16:16;;;;;;;12.63;8.88;;;-3.20;99.90;;;-4.30;100.00;101748.03;4185240;28;20408;-69
2024/01/19 06:18:17;;;;;;;13.82;9.15;;;-3.20;99.90;;;-4.30;100.00;101750.59;4186357;28;20033;-69
2024/01/19 06:20:18;;;;;;;11.90;8.20;;;-3.20;99.90;;;-4.30;100.00;101755.75;4175444;28;20117;-69
2024/01/19 06:22:19;;;;;;;13.55;8.43;;;-3.20;99.90;;;-4.28;100.00;101753.97;4169715;28;20052;-69
2024/01/19 06:24:20;;;;;;;11.57;8.25;;;-3.30;99.90;;;-4.28;100.00;101753.97;4169841;28;20041;-69
2024/01/19 06:26:21;;;;;;;16.67;8.63;;;-3.30;99.90;;;-4.27;100.00;101763.41;4169571;28;20034;-69
2024/01/19 06:28:21;;;;;;;13.77;7.95;;;-3.30;99.90;;;-4.29;100.00;101762.56;4169694;28;20022;-68
2024/01/19 06:30:22;;;;;;;12.20;8.05;;;-3.30;99.90;;;-4.35;100.00;101763.56;4181976;28;20021;-68
2024/01/19 06:32:23;;;;;;;12.20;8.10;;;-3.30;99.90;;;-4.34;100.00;101773.00;4168428;28;20092;-68
2024/01/19 06:34:25;;;;;;;13.45;8.25;;;-3.30;99.90;;;-4.36;100.00;101774.75;4185086;28;20033;-68
2024/01/19 06:36:27;;;;;;;11.43;8.27;;;-3.30;99.90;;;-4.35;100.00;101770.44;4178115;28;20025;-68
2024/01/19 06:38:27;;;;;;;12.57;8.73;;;-3.30;99.90;;;-4.37;100.00;101773.06;4169502;28;20032;-68
2024/01/19 06:40:28;;;;;;;11.25;7.95;;;-3.30;99.90;;;-4.41;100.00;101779.16;4169333;28;20021;-68
2024/01/19 06:42:30;;;;;;;10.63;7.65;;;-3.30;99.90;;;-4.43;100.00;101778.38;4169559;28;20029;-68
2024/01/19 06:44:31;;;;;;;11.07;7.18;;;-3.40;99.90;;;-4.47;100.00;101777.59;4169493;28;20025;-68
2024/01/19 06:46:32;;;;;;;11.00;7.90;;;-3.30;99.90;;;-4.44;100.00;101792.13;4181507;28;20033;-69
2024/01/19 06:48:33;;;;;;;15.18;8.40;;;-3.40;99.90;;;-4.44;100.00;101793.84;4169531;28;20026;-68
2024/01/19 06:50:34;;;;;;;12.82;8.60;;;-3.40;99.90;;;-4.39;100.00;101802.31;4169566;28;20029;-68
2024/01/19 06:52:35;;;;;;;18.35;8.77;;;-3.40;99.90;;;-4.35;100.00;101796.19;4178543;28;20029;-68
2024/01/19 06:54:36;;;;;;;11.35;8.20;;;-3.30;99.90;;;-4.29;100.00;101796.06;4185748;28;20036;-68
2024/01/19 06:56:36;;;;;;;10.48;7.90;;;-3.30;99.90;;;-4.31;100.00;101800.41;4182890;28;20381;-68
2024/01/19 06:58:37;;;;;;;13.13;8.30;;;-3.30;99.90;;;-4.34;100.00;101805.63;4169400;28;20087;-68
2024/01/19 07:00:38;;;;;;;13.90;8.63;;;-3.30;99.90;;;-4.27;100.00;101808.00;4176968;28;20104;-68
2024/01/19 07:02:39;;;;;;;13.63;9.13;;;-3.30;99.90;;;-4.21;100.00;101812.19;4169182;28;20503;-68
2024/01/19 07:04:40;;;;;;;13.23;9.77;;;-3.30;99.90;;;-4.25;100.00;101800.25;4169058;28;20018;-68
2024/01/19 07:06:41;;;;;;;12.73;8.93;;;-3.20;99.90;;;-4.21;100.00;101812.19;4167827;28;20064;-68
2024/01/19 07:08:44;;;;;;;13.40;8.43;;;-3.20;99.90;;;-4.22;100.00;101816.50;4171674;28;20083;-68
2024/01/19 07:10:45;;;;;;;13.77;8.50;;;-3.20;99.90;;;-4.21;100.00;101812.19;4173499;28;20025;-68
2024/01/19 07:12:46;;;;;;;14.63;8.52;;;-3.20;99.90;;;-4.25;100.00;101815.72;4183932;28;20079;-68
2024/01/19 07:14:47;;;;;;;12.18;8.32;;;-3.20;99.90;;;-4.30;100.00;101812.41;4184333;28;20032;-68
2024/01/19 07:16:47;;;;;;;14.63;8.55;;;-3.30;99.90;;;-4.31;100.00;101824.44;4177016;28;20026;-68
2024/01/19 07:18:48;;;;;;;14.05;8.43;;;-3.30;99.90;;;-4.31;100.00;101823.59;4180229;28;20029;-68
2024/01/19 07:20:49;;;;;;;14.60;8.82;;;-3.30;99.90;;;-4.32;100.00;101829.59;4184317;28;20096;-70
2024/01/19 07:22:53;;;;;;;12.23;9.00;;;-3.30;99.90;;;-4.39;100.00;101828.91;4180071;28;20045;-68
2024/01/19 07:24:54;;;;;;;11.98;8.07;;;-3.30;99.90;;;-4.40;100.00;101841.81;4168789;28;20029;-69
2024/01/19 07:26:55;;;;;;;13.30;8.90;;;-3.40;99.90;;;-4.44;100.00;101840.19;4178862;28;20048;-69
2024/01/19 07:28:55;;;;;;;12.43;8.35;;;-3.40;99.90;;;-4.40;100.00;101846.97;4183503;28;20021;-68
2024/01/19 07:30:56;;;;;;;15.85;10.18;;;-3.40;99.90;;;-4.34;100.00;101844.25;4185546;28;20154;-68
2024/01/19 07:32:57;;;;;;;15.50;9.63;;;-3.40;99.90;;;-4.26;100.00;101843.19;4167564;28;20023;-69
2024/01/19 07:34:58;;;;;;;15.05;9.63;;;-3.40;99.90;;;-4.23;100.00;101848.28;4178649;28;20040;-68
2024/01/19 07:36:59;;;;;;;18.60;9.77;;;-3.30;99.90;;;-4.13;100.00;101848.91;4170850;28;20477;-68
2024/01/19 07:39:00;;;;;;;14.73;9.18;;;-3.20;99.90;;;-4.09;100.00;101859.09;4178686;28;20037;-69
2024/01/19 07:41:01;;;;;;;17.33;9.18;;;-3.20;99.90;;;-4.05;100.00;101847.00;4168329;28;20504;-68
2024/01/19 07:43:02;;;;;;;19.23;9.50;;;-3.20;99.90;;;-4.02;100.00;101850.34;4167482;28;20079;-68
2024/01/19 07:45:04;;;;;;;12.77;9.15;;;-3.10;99.90;;;-4.02;100.00;101850.34;4181453;28;20037;-69
2024/01/19 07:47:05;;;;;;;11.88;8.50;;;-3.10;99.90;;;-4.02;100.00;101854.66;4185138;28;20108;-69
2024/01/19 07:49:06;;;;;;;14.85;8.73;;;-3.00;99.90;;;-4.04;100.00;101861.59;4184996;28;20028;-68
2024/01/19 07:51:07;;;;;;;15.13;9.52;;;-3.00;99.90;;;-4.02;100.00;101864.97;4170939;28;20397;-69
2024/01/19 07:53:08;;;;;;;15.95;10.52;;;-3.00;99.90;;;-4.01;100.00;101861.50;4182061;28;20576;-69
2024/01/19 07:55:08;;;;;;;20.10;13.07;;;-3.00;99.90;;;-3.98;100.00;101864.00;4181362;28;20048;-69
2024/01/19 07:57:09;;;;;;;17.52;11.52;;;-3.00;99.90;;;-3.97;100.00;101863.13;4168603;28;20032;-69
2024/01/19 07:59:10;;;;;;;16.00;10.70;;;-3.00;99.90;;;-4.01;100.00;101859.78;4177446;28;20029;-69
2024/01/19 08:01:11;;;;;;;18.77;10.55;;;-3.00;99.90;;;-4.05;100.00;101867.59;4168489;28;20037;-69
2024/01/19 08:03:14;;;;;;;12.85;9.45;;;-3.00;99.90;;;-4.10;100.00;101867.72;4168622;28;20083;-69
2024/01/19 08:05:14;;;;;;;14.77;9.77;;;-3.10;99.90;;;-4.09;100.00;101874.56;4176186;28;20024;-68
2024/01/19 08:07:15;;;;;;;17.52;11.60;;;-3.10;99.90;;;-4.13;100.00;101872.97;4168034;28;20029;-68
2024/01/19 08:09:16;;;;;;;21.85;13.95;;;-3.10;99.90;;;-4.09;100.00;101878.88;4179700;28;20530;-68
2024/01/19 08:11:17;;;;;;;16.45;11.15;;;-3.10;99.90;;;-4.04;100.00;101889.94;4176489;28;20017;-68
2024/01/19 08:13:18;;;;;;;27.45;13.63;;;-3.10;99.90;;;-3.99;100.00;101883.78;4167592;28;20397;-68